sensor_id;sensor_type;location;lat;lon;timestamp;P1;durP1;ratioP1;P2;durP2;ratioP2
4057;SDS011;2044;48.692;9.020;2023-04-15T00:01:49;58.27;;;26.50;;
4057;SDS011;2044;48.692;9.020;2023-04-15T00:04:16;55.17;;;24.00;;
4057;SDS011;2044;48.692;9.020;2023-04-15T00:06:48;19.67;;;8.97;;
4057;SDS011;2044;48.692;9.020;2023-04-15T00:09:15;15.43;;;8.23;;
4057;SDS011;2044;48.692;9.020;2023-04-15T00:11:42;29.00;;;12.63;;
4057;SDS011;2044;48.692;9.020;2023-04-15T00:14:11;40.57;;;18.10;;
4057;SDS011;2044;48.692;9.020;2023-04-15T00:16:37;13.60;;;6.23;;
4057;SDS011;2044;48.692;9.020;2023-04-15T00:19:04;10.83;;;6.10;;
4057;SDS011;2044;48.692;9.020;2023-04-15T00:21:31;7.63;;;5.30;;
4057;SDS011;2044;48.692;9.020;2023-04-15T00:23:58;17.60;;;7.20;;
4057;SDS011;2044;48.692;9.020;2023-04-15T00:26:25;21.63;;;8.23;;
4057;SDS011;2044;48.692;9.020;2023-04-15T00:28:51;12.83;;;6.27;;
4057;SDS011;2044;48.692;9.020;2023-04-15T00:31:19;11.50;;;5.30;;
4057;SDS011;2044;48.692;9.020;2023-04-15T00:33:46;7.00;;;4.50;;
4057;SDS011;2044;48.692;9.020;2023-04-15T00:36:13;8.77;;;5.37;;
4057;SDS011;2044;48.692;9.020;2023-04-15T00:38:40;8.17;;;4.60;;
4057;SDS011;2044;48.692;9.020;2023-04-15T00:41:07;6.83;;;4.17;;
4057;SDS011;2044;48.692;9.020;2023-04-15T00:43:35;4.83;;;4.10;;
4057;SDS011;2044;48.692;9.020;2023-04-15T00:46:03;8.97;;;5.37;;
4057;SDS011;2044;48.692;9.020;2023-04-15T00:48:32;11.00;;;5.23;;
4057;SDS011;2044;48.692;9.020;2023-04-15T00:50:58;9.73;;;5.17;;
4057;SDS011;2044;48.692;9.020;2023-04-15T00:53:25;12.87;;;5.50;;
4057;SDS011;2044;48.692;9.020;2023-04-15T00:55:52;11.40;;;6.17;;
4057;SDS011;2044;48.692;9.020;2023-04-15T00:58:19;13.47;;;7.70;;
4057;SDS011;2044;48.692;9.020;2023-04-15T01:00:46;16.97;;;10.20;;
4057;SDS011;2044;48.692;9.020;2023-04-15T01:03:13;19.10;;;9.73;;
4057;SDS011;2044;48.692;9.020;2023-04-15T01:05:41;21.10;;;12.90;;
4057;SDS011;2044;48.692;9.020;2023-04-15T01:08:08;27.80;;;11.80;;
4057;SDS011;2044;48.692;9.020;2023-04-15T01:10:35;20.23;;;9.93;;
4057;SDS011;2044;48.692;9.020;2023-04-15T01:13:02;12.00;;;7.87;;
4057;SDS011;2044;48.692;9.020;2023-04-15T01:15:29;17.20;;;9.10;;
4057;SDS011;2044;48.692;9.020;2023-04-15T01:17:56;16.53;;;8.10;;
4057;SDS011;2044;48.692;9.020;2023-04-15T01:20:23;13.00;;;8.00;;
4057;SDS011;2044;48.692;9.020;2023-04-15T01:22:51;15.90;;;6.20;;
4057;SDS011;2044;48.692;9.020;2023-04-15T01:25:26;15.67;;;7.30;;
4057;SDS011;2044;48.692;9.020;2023-04-15T01:27:56;12.07;;;7.50;;
4057;SDS011;2044;48.692;9.020;2023-04-15T01:30:24;13.97;;;7.27;;
4057;SDS011;2044;48.692;9.020;2023-04-15T01:32:51;11.20;;;6.53;;
4057;SDS011;2044;48.692;9.020;2023-04-15T01:35:18;7.67;;;4.63;;
4057;SDS011;2044;48.692;9.020;2023-04-15T01:37:46;8.80;;;5.80;;
4057;SDS011;2044;48.692;9.020;2023-04-15T01:40:13;12.40;;;6.50;;
4057;SDS011;2044;48.692;9.020;2023-04-15T01:42:42;11.87;;;6.73;;
4057;SDS011;2044;48.692;9.020;2023-04-15T01:45:09;14.60;;;8.60;;
4057;SDS011;2044;48.692;9.020;2023-04-15T01:47:37;10.43;;;7.23;;
4057;SDS011;2044;48.692;9.020;2023-04-15T01:50:04;15.37;;;7.53;;
4057;SDS011;2044;48.692;9.020;2023-04-15T01:52:32;12.13;;;7.03;;
4057;SDS011;2044;48.692;9.020;2023-04-15T01:54:59;10.80;;;6.77;;
4057;SDS011;2044;48.692;9.020;2023-04-15T01:57:26;18.10;;;7.27;;
4057;SDS011;2044;48.692;9.020;2023-04-15T01:59:54;15.73;;;8.20;;
4057;SDS011;2044;48.692;9.020;2023-04-15T02:02:21;14.23;;;8.80;;
4057;SDS011;2044;48.692;9.020;2023-04-15T02:04:48;17.43;;;8.03;;
4057;SDS011;2044;48.692;9.020;2023-04-15T02:07:15;39.00;;;17.30;;
4057;SDS011;2044;48.692;9.020;2023-04-15T02:09:42;35.93;;;18.60;;
4057;SDS011;2044;48.692;9.020;2023-04-15T02:12:10;54.43;;;27.73;;
4057;SDS011;2044;48.692;9.020;2023-04-15T02:14:37;29.13;;;15.00;;
4057;SDS011;2044;48.692;9.020;2023-04-15T02:17:05;13.40;;;6.23;;
4057;SDS011;2044;48.692;9.020;2023-04-15T02:19:32;14.93;;;7.43;;
4057;SDS011;2044;48.692;9.020;2023-04-15T02:21:59;13.07;;;6.43;;
4057;SDS011;2044;48.692;9.020;2023-04-15T02:24:26;10.73;;;6.87;;
4057;SDS011;2044;48.692;9.020;2023-04-15T02:26:53;8.67;;;6.33;;
4057;SDS011;2044;48.692;9.020;2023-04-15T02:29:21;10.37;;;5.70;;
4057;SDS011;2044;48.692;9.020;2023-04-15T02:31:48;12.93;;;6.03;;
4057;SDS011;2044;48.692;9.020;2023-04-15T02:34:16;11.67;;;7.07;;
4057;SDS011;2044;48.692;9.020;2023-04-15T02:36:43;10.50;;;6.20;;
4057;SDS011;2044;48.692;9.020;2023-04-15T02:39:10;11.40;;;5.80;;
4057;SDS011;2044;48.692;9.020;2023-04-15T02:41:38;10.90;;;5.80;;
4057;SDS011;2044;48.692;9.020;2023-04-15T02:44:07;12.83;;;5.73;;
4057;SDS011;2044;48.692;9.020;2023-04-15T02:46:36;10.83;;;6.30;;
4057;SDS011;2044;48.692;9.020;2023-04-15T02:49:05;12.20;;;6.00;;
4057;SDS011;2044;48.692;9.020;2023-04-15T02:51:33;9.67;;;5.47;;
4057;SDS011;2044;48.692;9.020;2023-04-15T02:54:00;9.47;;;5.50;;
4057;SDS011;2044;48.692;9.020;2023-04-15T02:56:27;10.03;;;4.53;;
4057;SDS011;2044;48.692;9.020;2023-04-15T02:58:55;9.70;;;5.50;;
4057;SDS011;2044;48.692;9.020;2023-04-15T03:01:22;9.03;;;5.30;;
4057;SDS011;2044;48.692;9.020;2023-04-15T03:03:50;8.20;;;4.83;;
4057;SDS011;2044;48.692;9.020;2023-04-15T03:06:16;8.43;;;5.37;;
4057;SDS011;2044;48.692;9.020;2023-04-15T03:08:44;9.07;;;5.33;;
4057;SDS011;2044;48.692;9.020;2023-04-15T03:11:11;10.47;;;4.90;;
4057;SDS011;2044;48.692;9.020;2023-04-15T03:13:38;12.43;;;5.60;;
4057;SDS011;2044;48.692;9.020;2023-04-15T03:16:06;7.07;;;4.30;;
4057;SDS011;2044;48.692;9.020;2023-04-15T03:18:33;7.07;;;4.97;;
4057;SDS011;2044;48.692;9.020;2023-04-15T03:20:59;10.00;;;4.70;;
4057;SDS011;2044;48.692;9.020;2023-04-15T03:23:26;10.33;;;5.60;;
4057;SDS011;2044;48.692;9.020;2023-04-15T03:25:54;6.70;;;3.93;;
4057;SDS011;2044;48.692;9.020;2023-04-15T03:28:22;7.57;;;3.80;;
4057;SDS011;2044;48.692;9.020;2023-04-15T03:30:49;10.27;;;5.73;;
4057;SDS011;2044;48.692;9.020;2023-04-15T03:33:15;5.90;;;4.70;;
4057;SDS011;2044;48.692;9.020;2023-04-15T03:35:42;12.00;;;5.00;;
4057;SDS011;2044;48.692;9.020;2023-04-15T03:38:09;6.83;;;5.03;;
4057;SDS011;2044;48.692;9.020;2023-04-15T03:40:37;7.30;;;4.67;;
4057;SDS011;2044;48.692;9.020;2023-04-15T03:43:06;8.47;;;5.33;;
4057;SDS011;2044;48.692;9.020;2023-04-15T03:45:33;9.20;;;5.20;;
4057;SDS011;2044;48.692;9.020;2023-04-15T03:48:00;7.40;;;4.77;;
4057;SDS011;2044;48.692;9.020;2023-04-15T03:50:27;9.60;;;4.57;;
4057;SDS011;2044;48.692;9.020;2023-04-15T03:52:53;9.43;;;5.13;;
4057;SDS011;2044;48.692;9.020;2023-04-15T03:55:20;4.17;;;3.70;;
4057;SDS011;2044;48.692;9.020;2023-04-15T03:57:47;11.07;;;5.40;;
4057;SDS011;2044;48.692;9.020;2023-04-15T04:00:15;10.23;;;4.60;;
4057;SDS011;2044;48.692;9.020;2023-04-15T04:02:42;10.57;;;4.60;;
4057;SDS011;2044;48.692;9.020;2023-04-15T04:05:09;5.20;;;4.07;;
4057;SDS011;2044;48.692;9.020;2023-04-15T04:07:36;7.80;;;4.50;;
4057;SDS011;2044;48.692;9.020;2023-04-15T04:10:03;9.23;;;4.10;;
4057;SDS011;2044;48.692;9.020;2023-04-15T04:12:30;7.00;;;3.80;;
4057;SDS011;2044;48.692;9.020;2023-04-15T04:14:57;8.30;;;4.40;;
4057;SDS011;2044;48.692;9.020;2023-04-15T04:17:25;5.67;;;4.20;;
4057;SDS011;2044;48.692;9.020;2023-04-15T04:19:52;4.90;;;3.70;;
4057;SDS011;2044;48.692;9.020;2023-04-15T04:22:21;10.03;;;4.67;;
4057;SDS011;2044;48.692;9.020;2023-04-15T04:24:48;7.97;;;3.90;;
4057;SDS011;2044;48.692;9.020;2023-04-15T04:27:15;5.50;;;3.90;;
4057;SDS011;2044;48.692;9.020;2023-04-15T04:29:42;10.47;;;4.93;;
4057;SDS011;2044;48.692;9.020;2023-04-15T04:32:11;11.30;;;4.73;;
4057;SDS011;2044;48.692;9.020;2023-04-15T04:34:39;6.93;;;4.07;;
4057;SDS011;2044;48.692;9.020;2023-04-15T04:37:06;12.10;;;4.47;;
4057;SDS011;2044;48.692;9.020;2023-04-15T04:39:33;11.10;;;4.70;;
4057;SDS011;2044;48.692;9.020;2023-04-15T04:42:00;10.33;;;5.10;;
4057;SDS011;2044;48.692;9.020;2023-04-15T04:44:27;12.37;;;5.70;;
4057;SDS011;2044;48.692;9.020;2023-04-15T04:46:53;6.70;;;4.20;;
4057;SDS011;2044;48.692;9.020;2023-04-15T04:49:20;6.30;;;4.83;;
4057;SDS011;2044;48.692;9.020;2023-04-15T04:51:48;5.80;;;4.63;;
4057;SDS011;2044;48.692;9.020;2023-04-15T04:54:16;5.50;;;4.40;;
4057;SDS011;2044;48.692;9.020;2023-04-15T04:56:42;9.03;;;4.87;;
4057;SDS011;2044;48.692;9.020;2023-04-15T04:59:09;9.20;;;5.10;;
4057;SDS011;2044;48.692;9.020;2023-04-15T05:01:36;9.93;;;5.33;;
4057;SDS011;2044;48.692;9.020;2023-04-15T05:04:02;14.87;;;5.80;;
4057;SDS011;2044;48.692;9.020;2023-04-15T05:06:31;17.13;;;5.90;;
4057;SDS011;2044;48.692;9.020;2023-04-15T05:08:59;8.67;;;5.33;;
4057;SDS011;2044;48.692;9.020;2023-04-15T05:11:25;9.97;;;5.73;;
4057;SDS011;2044;48.692;9.020;2023-04-15T05:13:52;10.03;;;6.23;;
4057;SDS011;2044;48.692;9.020;2023-04-15T05:16:19;11.27;;;6.53;;
4057;SDS011;2044;48.692;9.020;2023-04-15T05:18:46;10.73;;;5.70;;
4057;SDS011;2044;48.692;9.020;2023-04-15T05:21:12;9.47;;;6.40;;
4057;SDS011;2044;48.692;9.020;2023-04-15T05:23:39;8.30;;;5.67;;
4057;SDS011;2044;48.692;9.020;2023-04-15T05:26:07;10.17;;;7.17;;
4057;SDS011;2044;48.692;9.020;2023-04-15T05:28:34;10.57;;;6.87;;
4057;SDS011;2044;48.692;9.020;2023-04-15T05:31:01;8.30;;;6.40;;
4057;SDS011;2044;48.692;9.020;2023-04-15T05:33:28;13.00;;;6.27;;
4057;SDS011;2044;48.692;9.020;2023-04-15T05:35:54;11.83;;;5.40;;
4057;SDS011;2044;48.692;9.020;2023-04-15T05:38:21;9.40;;;4.93;;
4057;SDS011;2044;48.692;9.020;2023-04-15T05:40:48;7.10;;;5.00;;
4057;SDS011;2044;48.692;9.020;2023-04-15T05:43:16;6.73;;;4.70;;
4057;SDS011;2044;48.692;9.020;2023-04-15T05:45:42;5.20;;;3.93;;
4057;SDS011;2044;48.692;9.020;2023-04-15T05:48:09;7.73;;;3.90;;
4057;SDS011;2044;48.692;9.020;2023-04-15T05:50:36;4.20;;;3.57;;
4057;SDS011;2044;48.692;9.020;2023-04-15T05:53:05;3.60;;;3.30;;
4057;SDS011;2044;48.692;9.020;2023-04-15T05:55:32;4.80;;;3.30;;
4057;SDS011;2044;48.692;9.020;2023-04-15T05:57:58;6.23;;;3.47;;
4057;SDS011;2044;48.692;9.020;2023-04-15T06:00:26;5.27;;;3.63;;
4057;SDS011;2044;48.692;9.020;2023-04-15T06:02:53;6.37;;;3.77;;
4057;SDS011;2044;48.692;9.020;2023-04-15T06:05:21;5.60;;;3.50;;
4057;SDS011;2044;48.692;9.020;2023-04-15T06:07:48;7.40;;;3.93;;
4057;SDS011;2044;48.692;9.020;2023-04-15T06:10:15;6.20;;;3.67;;
4057;SDS011;2044;48.692;9.020;2023-04-15T06:12:42;4.80;;;3.33;;
4057;SDS011;2044;48.692;9.020;2023-04-15T06:15:09;5.83;;;3.60;;
4057;SDS011;2044;48.692;9.020;2023-04-15T06:17:37;4.93;;;4.43;;
4057;SDS011;2044;48.692;9.020;2023-04-15T06:20:04;6.63;;;3.90;;
4057;SDS011;2044;48.692;9.020;2023-04-15T06:22:33;7.17;;;4.00;;
4057;SDS011;2044;48.692;9.020;2023-04-15T06:25:01;4.40;;;4.00;;
4057;SDS011;2044;48.692;9.020;2023-04-15T06:27:28;6.77;;;5.50;;
4057;SDS011;2044;48.692;9.020;2023-04-15T06:29:56;6.90;;;6.30;;
4057;SDS011;2044;48.692;9.020;2023-04-15T06:32:22;8.23;;;7.60;;
4057;SDS011;2044;48.692;9.020;2023-04-15T06:34:50;9.30;;;8.60;;
4057;SDS011;2044;48.692;9.020;2023-04-15T06:37:17;9.10;;;8.37;;
4057;SDS011;2044;48.692;9.020;2023-04-15T06:39:44;8.93;;;8.10;;
4057;SDS011;2044;48.692;9.020;2023-04-15T06:42:11;9.33;;;8.47;;
4057;SDS011;2044;48.692;9.020;2023-04-15T06:44:38;9.57;;;8.77;;
4057;SDS011;2044;48.692;9.020;2023-04-15T06:47:05;10.20;;;9.20;;
4057;SDS011;2044;48.692;9.020;2023-04-15T06:49:31;10.73;;;9.80;;
4057;SDS011;2044;48.692;9.020;2023-04-15T06:52:00;10.40;;;9.50;;
4057;SDS011;2044;48.692;9.020;2023-04-15T06:54:28;18.20;;;17.03;;
4057;SDS011;2044;48.692;9.020;2023-04-15T06:56:55;17.20;;;16.23;;
4057;SDS011;2044;48.692;9.020;2023-04-15T06:59:22;18.20;;;16.90;;
4057;SDS011;2044;48.692;9.020;2023-04-15T07:01:49;17.30;;;16.37;;
4057;SDS011;2044;48.692;9.020;2023-04-15T07:04:15;18.17;;;16.97;;
4057;SDS011;2044;48.692;9.020;2023-04-15T07:06:42;18.00;;;16.83;;
4057;SDS011;2044;48.692;9.020;2023-04-15T07:09:11;18.23;;;17.23;;
4057;SDS011;2044;48.692;9.020;2023-04-15T07:11:38;17.73;;;16.53;;
4057;SDS011;2044;48.692;9.020;2023-04-15T07:14:05;18.50;;;17.10;;
4057;SDS011;2044;48.692;9.020;2023-04-15T07:16:31;19.17;;;17.80;;
4057;SDS011;2044;48.692;9.020;2023-04-15T07:18:58;17.50;;;16.47;;
4057;SDS011;2044;48.692;9.020;2023-04-15T07:21:25;17.67;;;16.67;;
4057;SDS011;2044;48.692;9.020;2023-04-15T07:23:52;18.27;;;16.97;;
4057;SDS011;2044;48.692;9.020;2023-04-15T07:26:20;17.33;;;16.20;;
4057;SDS011;2044;48.692;9.020;2023-04-15T07:28:47;16.80;;;16.00;;
4057;SDS011;2044;48.692;9.020;2023-04-15T07:31:14;16.80;;;15.70;;
4057;SDS011;2044;48.692;9.020;2023-04-15T07:33:41;17.10;;;15.97;;
4057;SDS011;2044;48.692;9.020;2023-04-15T07:36:08;16.80;;;15.87;;
4057;SDS011;2044;48.692;9.020;2023-04-15T07:38:35;17.27;;;16.40;;
4057;SDS011;2044;48.692;9.020;2023-04-15T07:41:01;17.40;;;16.00;;
4057;SDS011;2044;48.692;9.020;2023-04-15T07:43:30;15.27;;;14.40;;
4057;SDS011;2044;48.692;9.020;2023-04-15T07:45:56;16.60;;;15.60;;
4057;SDS011;2044;48.692;9.020;2023-04-15T07:48:24;16.30;;;15.40;;
4057;SDS011;2044;48.692;9.020;2023-04-15T07:50:50;17.50;;;16.57;;
4057;SDS011;2044;48.692;9.020;2023-04-15T07:53:17;16.20;;;15.27;;
4057;SDS011;2044;48.692;9.020;2023-04-15T07:55:44;17.10;;;16.10;;
4057;SDS011;2044;48.692;9.020;2023-04-15T07:58:10;16.40;;;15.40;;
4057;SDS011;2044;48.692;9.020;2023-04-15T08:00:38;17.17;;;16.23;;
4057;SDS011;2044;48.692;9.020;2023-04-15T08:03:05;16.80;;;15.60;;
4057;SDS011;2044;48.692;9.020;2023-04-15T08:05:32;15.60;;;14.70;;
4057;SDS011;2044;48.692;9.020;2023-04-15T08:07:59;15.20;;;14.33;;
4057;SDS011;2044;48.692;9.020;2023-04-15T08:10:25;15.20;;;14.30;;
4057;SDS011;2044;48.692;9.020;2023-04-15T08:12:53;15.13;;;14.17;;
4057;SDS011;2044;48.692;9.020;2023-04-15T08:15:20;16.50;;;15.13;;
4057;SDS011;2044;48.692;9.020;2023-04-15T08:17:48;15.97;;;14.90;;
4057;SDS011;2044;48.692;9.020;2023-04-15T08:20:15;15.33;;;14.47;;
4057;SDS011;2044;48.692;9.020;2023-04-15T08:22:42;15.00;;;14.20;;
4057;SDS011;2044;48.692;9.020;2023-04-15T08:25:11;14.30;;;13.50;;
4057;SDS011;2044;48.692;9.020;2023-04-15T08:27:38;15.10;;;14.30;;
4057;SDS011;2044;48.692;9.020;2023-04-15T08:30:05;13.80;;;13.17;;
4057;SDS011;2044;48.692;9.020;2023-04-15T08:32:33;14.63;;;13.73;;
4057;SDS011;2044;48.692;9.020;2023-04-15T08:35:01;14.73;;;13.80;;
4057;SDS011;2044;48.692;9.020;2023-04-15T08:37:28;14.60;;;13.80;;
4057;SDS011;2044;48.692;9.020;2023-04-15T08:39:55;14.93;;;14.23;;
4057;SDS011;2044;48.692;9.020;2023-04-15T08:42:22;14.67;;;13.93;;
4057;SDS011;2044;48.692;9.020;2023-04-15T08:44:52;14.17;;;13.47;;
4057;SDS011;2044;48.692;9.020;2023-04-15T08:47:20;14.90;;;14.03;;
4057;SDS011;2044;48.692;9.020;2023-04-15T08:49:51;14.93;;;14.03;;
4057;SDS011;2044;48.692;9.020;2023-04-15T08:52:24;14.53;;;13.93;;
4057;SDS011;2044;48.692;9.020;2023-04-15T08:54:51;14.40;;;13.60;;
4057;SDS011;2044;48.692;9.020;2023-04-15T08:57:22;14.03;;;13.20;;
4057;SDS011;2044;48.692;9.020;2023-04-15T08:59:51;14.83;;;14.13;;
4057;SDS011;2044;48.692;9.020;2023-04-15T09:02:18;14.40;;;13.70;;
4057;SDS011;2044;48.692;9.020;2023-04-15T09:04:46;13.83;;;13.20;;
4057;SDS011;2044;48.692;9.020;2023-04-15T09:07:12;14.90;;;14.10;;
4057;SDS011;2044;48.692;9.020;2023-04-15T09:09:40;14.60;;;13.90;;
4057;SDS011;2044;48.692;9.020;2023-04-15T09:12:07;14.00;;;13.30;;
4057;SDS011;2044;48.692;9.020;2023-04-15T09:14:37;14.27;;;13.57;;
4057;SDS011;2044;48.692;9.020;2023-04-15T09:17:07;13.67;;;12.87;;
4057;SDS011;2044;48.692;9.020;2023-04-15T09:19:35;14.00;;;13.40;;
4057;SDS011;2044;48.692;9.020;2023-04-15T09:22:02;14.07;;;13.23;;
4057;SDS011;2044;48.692;9.020;2023-04-15T09:24:33;13.63;;;12.93;;
4057;SDS011;2044;48.692;9.020;2023-04-15T09:27:04;8.13;;;7.83;;
4057;SDS011;2044;48.692;9.020;2023-04-15T09:29:31;8.83;;;8.23;;
4057;SDS011;2044;48.692;9.020;2023-04-15T09:32:07;9.13;;;8.60;;
4057;SDS011;2044;48.692;9.020;2023-04-15T09:34:35;9.20;;;8.63;;
4057;SDS011;2044;48.692;9.020;2023-04-15T09:37:02;9.70;;;8.80;;
4057;SDS011;2044;48.692;9.020;2023-04-15T09:39:43;8.80;;;8.40;;
4057;SDS011;2044;48.692;9.020;2023-04-15T09:42:12;8.43;;;7.93;;
4057;SDS011;2044;48.692;9.020;2023-04-15T09:44:39;8.90;;;8.10;;
4057;SDS011;2044;48.692;9.020;2023-04-15T09:47:06;8.50;;;8.10;;
4057;SDS011;2044;48.692;9.020;2023-04-15T09:49:33;8.90;;;8.30;;
4057;SDS011;2044;48.692;9.020;2023-04-15T09:52:00;8.70;;;8.40;;
4057;SDS011;2044;48.692;9.020;2023-04-15T09:54:32;9.80;;;9.30;;
4057;SDS011;2044;48.692;9.020;2023-04-15T09:57:03;9.20;;;8.70;;
4057;SDS011;2044;48.692;9.020;2023-04-15T09:59:32;8.70;;;8.30;;
4057;SDS011;2044;48.692;9.020;2023-04-15T10:01:59;8.10;;;7.80;;
4057;SDS011;2044;48.692;9.020;2023-04-15T10:04:29;8.77;;;8.37;;
4057;SDS011;2044;48.692;9.020;2023-04-15T10:07:00;9.30;;;8.80;;
4057;SDS011;2044;48.692;9.020;2023-04-15T10:09:30;10.03;;;9.20;;
4057;SDS011;2044;48.692;9.020;2023-04-15T10:11:58;8.60;;;8.30;;
4057;SDS011;2044;48.692;9.020;2023-04-15T10:14:25;8.70;;;8.30;;
4057;SDS011;2044;48.692;9.020;2023-04-15T10:16:57;8.77;;;8.37;;
4057;SDS011;2044;48.692;9.020;2023-04-15T10:19:26;8.53;;;7.97;;
4057;SDS011;2044;48.692;9.020;2023-04-15T10:21:56;8.70;;;8.10;;
4057;SDS011;2044;48.692;9.020;2023-04-15T10:24:24;8.00;;;7.67;;
4057;SDS011;2044;48.692;9.020;2023-04-15T10:26:51;8.10;;;7.70;;
4057;SDS011;2044;48.692;9.020;2023-04-15T10:29:19;7.90;;;7.50;;
4057;SDS011;2044;48.692;9.020;2023-04-15T10:31:46;7.87;;;7.47;;
4057;SDS011;2044;48.692;9.020;2023-04-15T10:34:15;8.93;;;8.30;;
4057;SDS011;2044;48.692;9.020;2023-04-15T10:36:42;8.03;;;7.63;;
4057;SDS011;2044;48.692;9.020;2023-04-15T10:42:07;8.90;;;8.40;;
4057;SDS011;2044;48.692;9.020;2023-04-15T10:44:35;8.80;;;8.40;;
4057;SDS011;2044;48.692;9.020;2023-04-15T10:47:09;8.40;;;8.00;;
4057;SDS011;2044;48.692;9.020;2023-04-15T10:49:46;9.53;;;9.00;;
4057;SDS011;2044;48.692;9.020;2023-04-15T10:52:14;9.17;;;8.57;;
4057;SDS011;2044;48.692;9.020;2023-04-15T10:54:42;9.30;;;8.60;;
4057;SDS011;2044;48.692;9.020;2023-04-15T10:57:13;9.73;;;9.13;;
4057;SDS011;2044;48.692;9.020;2023-04-15T11:00:00;9.50;;;8.90;;
4057;SDS011;2044;48.692;9.020;2023-04-15T11:02:42;9.10;;;8.70;;
4057;SDS011;2044;48.692;9.020;2023-04-15T11:05:11;9.40;;;8.80;;
4057;SDS011;2044;48.692;9.020;2023-04-15T11:07:40;9.40;;;8.50;;
4057;SDS011;2044;48.692;9.020;2023-04-15T11:13:18;10.37;;;9.57;;
4057;SDS011;2044;48.692;9.020;2023-04-15T11:15:47;11.00;;;10.10;;
4057;SDS011;2044;48.692;9.020;2023-04-15T11:18:16;10.77;;;10.00;;
4057;SDS011;2044;48.692;9.020;2023-04-15T11:20:47;11.63;;;10.73;;
4057;SDS011;2044;48.692;9.020;2023-04-15T11:23:16;10.90;;;10.20;;
4057;SDS011;2044;48.692;9.020;2023-04-15T11:25:43;11.10;;;10.10;;
4057;SDS011;2044;48.692;9.020;2023-04-15T11:28:11;10.10;;;9.50;;
4057;SDS011;2044;48.692;9.020;2023-04-15T11:30:39;10.33;;;9.67;;
4057;SDS011;2044;48.692;9.020;2023-04-15T11:33:07;9.40;;;8.90;;
4057;SDS011;2044;48.692;9.020;2023-04-15T11:35:36;9.33;;;8.83;;
4057;SDS011;2044;48.692;9.020;2023-04-15T11:38:07;10.53;;;9.83;;
4057;SDS011;2044;48.692;9.020;2023-04-15T11:40:36;11.00;;;9.90;;
4057;SDS011;2044;48.692;9.020;2023-04-15T11:43:03;11.20;;;9.83;;
4057;SDS011;2044;48.692;9.020;2023-04-15T11:45:31;9.73;;;8.80;;
4057;SDS011;2044;48.692;9.020;2023-04-15T11:48:05;9.47;;;8.80;;
4057;SDS011;2044;48.692;9.020;2023-04-15T11:50:32;9.57;;;8.80;;
4057;SDS011;2044;48.692;9.020;2023-04-15T11:53:00;9.67;;;9.10;;
4057;SDS011;2044;48.692;9.020;2023-04-15T11:55:29;9.60;;;8.83;;
4057;SDS011;2044;48.692;9.020;2023-04-15T11:58:09;9.00;;;8.40;;
4057;SDS011;2044;48.692;9.020;2023-04-15T12:00:37;9.27;;;8.77;;
4057;SDS011;2044;48.692;9.020;2023-04-15T12:03:12;9.50;;;9.10;;
4057;SDS011;2044;48.692;9.020;2023-04-15T12:11:15;11.30;;;10.20;;
4057;SDS011;2044;48.692;9.020;2023-04-15T12:13:42;12.87;;;10.00;;
4057;SDS011;2044;48.692;9.020;2023-04-15T12:16:09;9.37;;;8.67;;
4057;SDS011;2044;48.692;9.020;2023-04-15T12:18:36;9.50;;;9.00;;
4057;SDS011;2044;48.692;9.020;2023-04-15T12:21:04;10.53;;;9.77;;
4057;SDS011;2044;48.692;9.020;2023-04-15T12:23:35;9.83;;;8.90;;
4057;SDS011;2044;48.692;9.020;2023-04-15T12:26:03;10.33;;;9.60;;
4057;SDS011;2044;48.692;9.020;2023-04-15T12:28:32;11.17;;;10.40;;
4057;SDS011;2044;48.692;9.020;2023-04-15T12:31:05;10.80;;;10.10;;
4057;SDS011;2044;48.692;9.020;2023-04-15T12:33:32;10.60;;;9.90;;
4057;SDS011;2044;48.692;9.020;2023-04-15T12:35:59;11.20;;;10.40;;
4057;SDS011;2044;48.692;9.020;2023-04-15T12:38:26;10.80;;;10.00;;
4057;SDS011;2044;48.692;9.020;2023-04-15T12:40:53;11.37;;;10.57;;
4057;SDS011;2044;48.692;9.020;2023-04-15T12:43:19;11.37;;;10.53;;
4057;SDS011;2044;48.692;9.020;2023-04-15T12:45:47;9.77;;;9.27;;
4057;SDS011;2044;48.692;9.020;2023-04-15T12:48:14;10.80;;;10.10;;
4057;SDS011;2044;48.692;9.020;2023-04-15T12:50:41;9.63;;;9.03;;
4057;SDS011;2044;48.692;9.020;2023-04-15T12:53:08;10.70;;;10.10;;
4057;SDS011;2044;48.692;9.020;2023-04-15T12:55:34;10.20;;;9.20;;
4057;SDS011;2044;48.692;9.020;2023-04-15T12:58:01;11.27;;;10.50;;
4057;SDS011;2044;48.692;9.020;2023-04-15T13:00:28;10.27;;;9.70;;
4057;SDS011;2044;48.692;9.020;2023-04-15T13:02:56;10.63;;;9.57;;
4057;SDS011;2044;48.692;9.020;2023-04-15T13:05:23;10.73;;;9.80;;
4057;SDS011;2044;48.692;9.020;2023-04-15T13:07:50;10.20;;;9.60;;
4057;SDS011;2044;48.692;9.020;2023-04-15T13:10:16;10.93;;;10.17;;
4057;SDS011;2044;48.692;9.020;2023-04-15T13:12:43;9.47;;;8.77;;
4057;SDS011;2044;48.692;9.020;2023-04-15T13:15:13;9.60;;;8.87;;
4057;SDS011;2044;48.692;9.020;2023-04-15T13:17:43;10.23;;;9.63;;
4057;SDS011;2044;48.692;9.020;2023-04-15T13:20:11;10.20;;;9.30;;
4057;SDS011;2044;48.692;9.020;2023-04-15T13:22:38;9.40;;;8.90;;
4057;SDS011;2044;48.692;9.020;2023-04-15T13:25:05;10.30;;;9.70;;
4057;SDS011;2044;48.692;9.020;2023-04-15T13:27:33;10.73;;;9.90;;
4057;SDS011;2044;48.692;9.020;2023-04-15T13:30:00;9.70;;;9.10;;
4057;SDS011;2044;48.692;9.020;2023-04-15T13:32:27;10.07;;;9.47;;
4057;SDS011;2044;48.692;9.020;2023-04-15T13:34:54;8.30;;;7.90;;
4057;SDS011;2044;48.692;9.020;2023-04-15T13:37:25;9.47;;;8.87;;
4057;SDS011;2044;48.692;9.020;2023-04-15T13:39:52;8.37;;;7.87;;
4057;SDS011;2044;48.692;9.020;2023-04-15T13:42:20;8.90;;;8.40;;
4057;SDS011;2044;48.692;9.020;2023-04-15T13:44:46;9.20;;;8.50;;
4057;SDS011;2044;48.692;9.020;2023-04-15T13:47:14;9.37;;;8.70;;
4057;SDS011;2044;48.692;9.020;2023-04-15T13:49:41;9.30;;;8.70;;
4057;SDS011;2044;48.692;9.020;2023-04-15T13:52:09;10.00;;;9.40;;
4057;SDS011;2044;48.692;9.020;2023-04-15T13:54:37;11.27;;;10.30;;
4057;SDS011;2044;48.692;9.020;2023-04-15T13:57:04;11.07;;;10.17;;
4057;SDS011;2044;48.692;9.020;2023-04-15T13:59:31;9.03;;;8.53;;
4057;SDS011;2044;48.692;9.020;2023-04-15T14:01:58;11.03;;;9.97;;
4057;SDS011;2044;48.692;9.020;2023-04-15T14:04:25;9.73;;;9.30;;
4057;SDS011;2044;48.692;9.020;2023-04-15T14:06:52;10.17;;;9.63;;
4057;SDS011;2044;48.692;9.020;2023-04-15T14:09:19;10.13;;;9.50;;
4057;SDS011;2044;48.692;9.020;2023-04-15T14:11:49;10.00;;;9.30;;
4057;SDS011;2044;48.692;9.020;2023-04-15T14:14:16;9.80;;;9.30;;
4057;SDS011;2044;48.692;9.020;2023-04-15T14:16:42;8.97;;;8.40;;
4057;SDS011;2044;48.692;9.020;2023-04-15T14:19:09;6.80;;;6.60;;
4057;SDS011;2044;48.692;9.020;2023-04-15T14:21:36;7.47;;;7.17;;
4057;SDS011;2044;48.692;9.020;2023-04-15T14:24:03;7.67;;;7.27;;
4057;SDS011;2044;48.692;9.020;2023-04-15T14:26:30;7.43;;;7.13;;
4057;SDS011;2044;48.692;9.020;2023-04-15T14:28:58;6.80;;;6.60;;
4057;SDS011;2044;48.692;9.020;2023-04-15T14:31:25;8.70;;;8.17;;
4057;SDS011;2044;48.692;9.020;2023-04-15T14:33:52;7.97;;;7.57;;
4057;SDS011;2044;48.692;9.020;2023-04-15T14:36:19;7.90;;;7.60;;
4057;SDS011;2044;48.692;9.020;2023-04-15T14:38:45;7.23;;;6.90;;
4057;SDS011;2044;48.692;9.020;2023-04-15T14:41:12;8.03;;;7.63;;
4057;SDS011;2044;48.692;9.020;2023-04-15T14:43:39;8.13;;;7.73;;
4057;SDS011;2044;48.692;9.020;2023-04-15T14:46:07;8.10;;;7.70;;
4057;SDS011;2044;48.692;9.020;2023-04-15T14:48:33;7.97;;;7.57;;
4057;SDS011;2044;48.692;9.020;2023-04-15T14:51:00;8.63;;;8.23;;
4057;SDS011;2044;48.692;9.020;2023-04-15T14:53:27;7.80;;;7.50;;
4057;SDS011;2044;48.692;9.020;2023-04-15T14:55:54;8.27;;;7.77;;
4057;SDS011;2044;48.692;9.020;2023-04-15T14:58:20;9.10;;;8.30;;
4057;SDS011;2044;48.692;9.020;2023-04-15T15:00:47;10.47;;;9.77;;
4057;SDS011;2044;48.692;9.020;2023-04-15T15:03:15;8.10;;;7.60;;
4057;SDS011;2044;48.692;9.020;2023-04-15T15:05:43;8.70;;;8.20;;
4057;SDS011;2044;48.692;9.020;2023-04-15T15:08:11;9.00;;;8.40;;
4057;SDS011;2044;48.692;9.020;2023-04-15T15:10:38;8.60;;;8.20;;
4057;SDS011;2044;48.692;9.020;2023-04-15T15:13:06;8.60;;;8.10;;
4057;SDS011;2044;48.692;9.020;2023-04-15T15:15:35;7.83;;;7.43;;
4057;SDS011;2044;48.692;9.020;2023-04-15T15:18:03;8.40;;;7.90;;
4057;SDS011;2044;48.692;9.020;2023-04-15T15:20:31;8.63;;;8.13;;